createdAt,value
2023-03-17T00:02:05.444Z,95.10
2023-03-17T00:04:34.787Z,95.00
2023-03-17T00:07:11.005Z,95.20
2023-03-17T00:09:39.651Z,95.20
2023-03-17T00:12:12.735Z,94.70
2023-03-17T00:14:42.717Z,95.00
2023-03-17T00:17:13.295Z,94.60
2023-03-17T00:19:43.561Z,94.70
2023-03-17T00:22:19.429Z,94.40
2023-03-17T00:24:48.712Z,94.10
2023-03-17T00:27:18.893Z,94.30
2023-03-17T00:29:47.932Z,94.30
2023-03-17T00:32:28.305Z,94.20
2023-03-17T00:34:57.495Z,94.00
2023-03-17T00:37:27.194Z,93.80
2023-03-17T00:39:55.822Z,93.60
2023-03-17T00:42:25.562Z,93.50
2023-03-17T00:44:54.810Z,93.50
2023-03-17T00:47:24.738Z,93.40
2023-03-17T00:49:54.966Z,93.10
2023-03-17T00:52:24.594Z,93.40
2023-03-17T00:54:54.997Z,93.30
2023-03-17T00:57:24.693Z,93.20
2023-03-17T00:59:54.074Z,93.00
2023-03-17T01:02:26.049Z,92.80
2023-03-17T01:05:05.810Z,92.90
2023-03-17T01:07:36.025Z,93.10
2023-03-17T01:10:05.589Z,93.00
2023-03-17T01:12:36.197Z,92.60
2023-03-17T01:15:05.045Z,93.10
2023-03-17T01:17:37.273Z,92.90
2023-03-17T01:20:07.609Z,92.90
2023-03-17T01:22:36.298Z,92.70
2023-03-17T01:25:05.916Z,92.70
2023-03-17T01:27:37.506Z,92.60
2023-03-17T01:30:07.845Z,92.80
2023-03-17T01:32:38.830Z,92.80
2023-03-17T01:35:11.033Z,92.60
2023-03-17T01:37:40.204Z,92.70
2023-03-17T01:40:11.387Z,92.60
2023-03-17T01:42:40.700Z,92.70
2023-03-17T01:45:50.077Z,92.70
2023-03-17T01:48:20.095Z,92.50
2023-03-17T01:50:49.863Z,92.50
2023-03-17T01:53:19.298Z,92.20
2023-03-17T01:55:52.889Z,92.40
2023-03-17T01:58:25.080Z,92.30
2023-03-17T02:00:53.773Z,92.10
2023-03-17T02:03:23.962Z,91.90
2023-03-17T02:05:53.807Z,91.80
2023-03-17T02:08:27.284Z,91.70
2023-03-17T02:10:58.241Z,91.60
2023-03-17T02:13:28.008Z,91.60
2023-03-17T02:15:57.957Z,91.50
2023-03-17T02:18:26.848Z,91.50
2023-03-17T02:21:03.474Z,91.40
2023-03-17T02:23:32.729Z,91.40
2023-03-17T02:26:01.573Z,91.30
2023-03-17T02:28:32.884Z,91.40
2023-03-17T02:31:01.731Z,91.30
2023-03-17T02:33:30.583Z,91.20
2023-03-17T02:36:00.666Z,91.20
2023-03-17T02:38:30.101Z,91.10
2023-03-17T02:40:59.153Z,91.00
2023-03-17T02:54:29.572Z,90.90
2023-03-17T02:57:09.891Z,90.80
2023-03-17T02:59:38.863Z,90.90
2023-03-17T03:02:07.971Z,91.00
2023-03-17T03:07:21.794Z,91.10
2023-03-17T03:09:53.576Z,91.00
2023-03-17T03:12:27.509Z,91.20
2023-03-17T03:15:07.990Z,91.20
2023-03-17T03:17:41.738Z,90.90
2023-03-17T03:20:24.464Z,90.90
2023-03-17T03:22:53.667Z,90.90
2023-03-17T03:25:22.978Z,90.80
2023-03-17T03:27:59.486Z,90.70
2023-03-17T03:30:29.144Z,90.80
2023-03-17T03:32:59.647Z,90.60
2023-03-17T03:38:13.935Z,90.60
2023-03-17T03:40:48.634Z,90.60
2023-03-17T03:43:26.201Z,90.60
2023-03-17T03:45:57.699Z,90.60
2023-03-17T03:48:40.249Z,90.50
2023-03-17T03:51:25.777Z,90.40
2023-03-17T03:54:01.644Z,90.40
2023-03-17T03:56:37.103Z,90.20
2023-03-17T04:01:55.990Z,90.00
2023-03-17T04:04:27.429Z,90.10
2023-03-17T04:06:58.560Z,89.80
2023-03-17T04:09:29.862Z,89.90
2023-03-17T04:12:04.062Z,90.00
2023-03-17T04:14:35.957Z,90.00
2023-03-17T04:17:06.669Z,89.50
2023-03-17T04:19:35.420Z,90.00
2023-03-17T04:22:16.951Z,89.50
2023-03-17T04:24:46.311Z,89.20
2023-03-17T04:27:19.932Z,88.90
2023-03-17T04:29:51.490Z,88.50
2023-03-17T04:32:21.764Z,88.50
2023-03-17T04:34:50.457Z,88.90
2023-03-17T04:37:21.679Z,88.60
2023-03-17T04:39:54.054Z,87.60
2023-03-17T04:42:22.847Z,87.20
2023-03-17T04:44:59.818Z,86.90
2023-03-17T04:47:29.749Z,87.20
2023-03-17T04:49:59.807Z,87.40
2023-03-17T04:52:39.285Z,87.20
2023-03-17T04:55:28.685Z,86.10
2023-03-17T04:58:00.029Z,85.40
2023-03-17T05:00:38.677Z,84.80
2023-03-17T05:03:20.189Z,84.10
2023-03-17T05:06:07.006Z,83.40
2023-03-17T05:08:41.308Z,84.70
2023-03-17T05:11:11.772Z,85.40
2023-03-17T05:13:42.077Z,83.60
2023-03-17T05:16:14.289Z,84.50
2023-03-17T05:18:57.830Z,82.90
2023-03-17T05:21:36.899Z,83.80
2023-03-17T05:24:07.153Z,82.60
2023-03-17T05:26:42.171Z,83.00
2023-03-17T05:29:18.851Z,82.40
2023-03-17T05:31:52.324Z,82.50
2023-03-17T05:34:23.394Z,81.90
2023-03-17T05:36:56.046Z,83.50
2023-03-17T05:39:26.758Z,83.30
2023-03-17T05:42:05.250Z,83.40
2023-03-17T05:44:37.026Z,84.30
2023-03-17T05:47:08.271Z,83.00
2023-03-17T05:49:41.646Z,84.20
2023-03-17T05:52:10.570Z,84.70
2023-03-17T05:54:50.109Z,81.70
2023-03-17T05:57:32.948Z,81.20
2023-03-17T06:00:01.362Z,80.80
2023-03-17T06:02:32.298Z,82.60
2023-03-17T06:05:02.627Z,81.30
2023-03-17T06:07:51.590Z,82.10
2023-03-17T06:10:22.456Z,82.70
2023-03-17T06:12:52.251Z,81.30
2023-03-17T06:18:18.750Z,79.70
2023-03-17T06:23:37.341Z,82.30
2023-03-17T06:28:50.921Z,82.50
2023-03-17T06:31:20.308Z,79.70
2023-03-17T06:36:44.034Z,80.90
2023-03-17T06:39:30.671Z,80.70
2023-03-17T06:42:09.176Z,81.30
2023-03-17T06:44:38.964Z,81.00
2023-03-17T06:52:50.952Z,79.10
2023-03-17T06:55:22.914Z,80.40
2023-03-17T06:58:02.414Z,80.70
2023-03-17T07:00:37.415Z,78.50
2023-03-17T07:03:07.500Z,79.20
2023-03-17T07:05:36.440Z,80.20
2023-03-17T07:08:08.598Z,79.60
2023-03-17T07:10:39.568Z,80.10
2023-03-17T07:13:09.574Z,80.10
2023-03-17T07:15:39.499Z,80.80
2023-03-17T07:18:14.807Z,80.10
2023-03-17T07:20:48.449Z,79.30
2023-03-17T07:23:30.879Z,80.40
2023-03-17T07:26:02.096Z,79.70
2023-03-17T07:28:32.732Z,80.20
2023-03-17T07:31:08.554Z,78.60
2023-03-17T07:33:38.485Z,79.90
2023-03-17T07:36:08.452Z,79.20
2023-03-17T07:38:48.565Z,79.90
2023-03-17T07:41:19.654Z,77.80
2023-03-17T07:43:49.890Z,78.30
2023-03-17T07:49:06.520Z,78.30
2023-03-17T07:51:44.443Z,80.10
2023-03-17T07:54:25.694Z,78.90
2023-03-17T07:56:57.572Z,79.10
2023-03-17T07:59:29.055Z,77.60
2023-03-17T08:04:44.495Z,80.40
2023-03-17T08:07:14.993Z,79.80
2023-03-17T08:09:44.306Z,77.50
2023-03-17T08:12:13.344Z,78.10
2023-03-17T08:17:28.507Z,76.00
2023-03-17T08:19:59.699Z,75.80
2023-03-17T08:22:33.715Z,75.70
2023-03-17T08:25:15.834Z,76.70
2023-03-17T08:27:45.505Z,78.80
2023-03-17T08:30:14.818Z,78.20
2023-03-17T08:32:44.218Z,77.10
2023-03-17T08:35:30.100Z,77.80
2023-03-17T08:37:59.175Z,75.50
2023-03-17T08:40:32.634Z,77.30
2023-03-17T08:43:06.574Z,76.10
2023-03-17T08:48:26.224Z,77.50
2023-03-17T08:50:55.298Z,77.00
2023-03-17T08:56:10.227Z,77.60
2023-03-17T08:58:43.916Z,77.90
2023-03-17T09:03:58.852Z,74.90
2023-03-17T09:06:31.807Z,74.40
2023-03-17T09:09:02.827Z,76.30
2023-03-17T09:14:23.777Z,76.60
2023-03-17T09:19:57.066Z,77.00
2023-03-17T09:22:28.444Z,74.60
2023-03-17T09:24:58.045Z,75.50
2023-03-17T09:27:37.968Z,74.40
2023-03-17T09:30:08.541Z,75.90
2023-03-17T09:32:37.143Z,75.80
2023-03-17T09:35:06.253Z,75.80
2023-03-17T09:37:35.385Z,75.80
2023-03-17T09:40:06.536Z,75.20
2023-03-17T09:43:05.758Z,74.20
2023-03-17T09:45:55.326Z,74.40
2023-03-17T09:48:44.312Z,73.90
2023-03-17T09:51:18.916Z,74.10
2023-03-17T09:54:12.818Z,74.00
2023-03-17T09:56:47.874Z,74.60
2023-03-17T09:59:42.225Z,74.20
2023-03-17T10:02:25.261Z,74.60
2023-03-17T10:07:45.428Z,74.20
2023-03-17T10:10:25.118Z,75.30
2023-03-17T10:13:25.851Z,74.30
2023-03-17T10:18:55.473Z,74.70
2023-03-17T10:21:33.199Z,73.80
2023-03-17T10:24:05.511Z,74.10
2023-03-17T10:26:43.685Z,74.10
2023-03-17T10:29:21.252Z,73.80
2023-03-17T10:32:03.350Z,74.20
2023-03-17T10:34:43.446Z,74.60
2023-03-17T10:37:23.564Z,74.90
2023-03-17T10:45:56.313Z,75.70
2023-03-17T10:48:31.017Z,75.90
2023-03-17T10:51:11.274Z,76.10
2023-03-17T10:53:44.978Z,76.20
2023-03-17T10:56:43.083Z,76.60
2023-03-17T11:04:49.512Z,77.10
2023-03-17T11:07:24.160Z,77.30
2023-03-17T11:09:53.620Z,77.60
2023-03-17T11:12:31.058Z,77.70
2023-03-17T11:15:21.777Z,78.10
2023-03-17T11:18:02.478Z,78.00
2023-03-17T11:21:03.888Z,78.40
2023-03-17T11:23:53.854Z,78.30
2023-03-17T11:27:05.642Z,78.40
2023-03-17T11:29:47.417Z,78.10
2023-03-17T11:32:44.716Z,78.00
2023-03-17T11:35:46.973Z,77.90
2023-03-17T11:38:42.505Z,78.10
2023-03-17T11:44:26.398Z,78.20
2023-03-17T11:49:42.354Z,78.90
2023-03-17T11:52:35.635Z,79.00
2023-03-17T11:55:27.668Z,79.40
2023-03-17T11:58:16.847Z,79.60
2023-03-17T12:03:47.970Z,80.10
2023-03-17T12:06:33.279Z,80.40
2023-03-17T12:09:19.909Z,80.70
2023-03-17T12:11:54.245Z,80.80
2023-03-17T12:17:55.595Z,81.70
2023-03-17T12:23:49.825Z,81.80
2023-03-17T12:26:26.576Z,81.70
2023-03-17T12:29:10.733Z,81.90
2023-03-17T12:31:50.364Z,82.10
2023-03-17T12:40:43.981Z,82.30
2023-03-17T12:43:42.799Z,82.30
2023-03-17T12:46:44.311Z,82.40
2023-03-17T12:49:29.783Z,82.80
2023-03-17T12:58:06.915Z,83.10
2023-03-17T13:00:53.225Z,83.30
2023-03-17T13:03:32.533Z,83.50
2023-03-17T13:06:14.607Z,84.20
2023-03-17T13:08:45.143Z,84.20
2023-03-17T13:14:54.466Z,84.40
2023-03-17T13:17:25.691Z,84.60
2023-03-17T13:23:16.039Z,86.10
2023-03-17T13:28:44.594Z,86.50
2023-03-17T13:31:36.462Z,86.90
2023-03-17T13:37:24.920Z,87.10
2023-03-17T13:43:25.230Z,86.50
2023-03-17T13:46:27.889Z,87.00
2023-03-17T13:52:00.242Z,87.00
2023-03-17T13:54:31.940Z,87.10
2023-03-17T13:57:32.960Z,87.10
2023-03-17T14:09:01.408Z,87.50
2023-03-17T14:11:40.420Z,87.60
2023-03-17T14:14:34.134Z,87.60
2023-03-17T14:20:29.102Z,87.90
2023-03-17T14:28:50.116Z,87.60
2023-03-17T14:31:31.075Z,87.50
2023-03-17T14:34:07.762Z,87.10
2023-03-17T14:39:28.419Z,87.20
2023-03-17T14:42:06.528Z,87.50
2023-03-17T14:44:47.722Z,87.70
2023-03-17T14:55:53.871Z,87.60
2023-03-17T14:58:28.747Z,88.00
2023-03-17T15:01:20.685Z,88.60
2023-03-17T15:09:47.359Z,89.50
2023-03-17T15:20:45.222Z,88.40
2023-03-17T15:23:25.823Z,88.70
2023-03-17T15:26:03.502Z,89.00
2023-03-17T15:28:35.734Z,89.00
2023-03-17T15:31:41.113Z,89.20
2023-03-17T15:37:10.356Z,89.30
2023-03-17T15:39:55.882Z,89.00
2023-03-17T15:45:15.420Z,88.80
2023-03-17T15:47:47.937Z,88.60
2023-03-17T15:50:25.063Z,89.00
2023-03-17T15:52:56.701Z,89.20
2023-03-17T15:55:30.352Z,89.20
2023-03-17T15:58:00.191Z,90.00
2023-03-17T16:00:30.676Z,90.70
2023-03-17T16:03:03.843Z,91.00
2023-03-17T16:05:34.799Z,91.00
2023-03-17T16:08:03.398Z,91.10
2023-03-17T16:10:34.047Z,90.90
2023-03-17T16:13:02.824Z,90.80
2023-03-17T16:15:36.481Z,90.80
2023-03-17T16:18:09.348Z,91.00
2023-03-17T16:23:29.823Z,91.10
2023-03-17T16:26:17.014Z,91.40
2023-03-17T16:28:51.938Z,91.00
2023-03-17T16:31:31.186Z,91.00
2023-03-17T16:33:59.999Z,91.10
2023-03-17T16:36:28.917Z,91.00
2023-03-17T16:38:57.682Z,90.90
2023-03-17T16:41:29.454Z,91.10
2023-03-17T16:46:53.090Z,90.70
2023-03-17T16:49:25.505Z,90.70
2023-03-17T16:54:41.647Z,91.20
2023-03-17T16:57:15.043Z,91.50
2023-03-17T17:03:38.570Z,91.30
2023-03-17T17:06:08.044Z,90.90
2023-03-17T17:08:36.645Z,90.50
2023-03-17T17:11:05.515Z,90.70
2023-03-17T17:13:34.177Z,91.10
2023-03-17T17:16:02.869Z,91.30
2023-03-17T17:18:31.404Z,90.90
2023-03-17T17:21:01.191Z,90.70
2023-03-17T17:23:29.985Z,90.80
2023-03-17T17:26:12.290Z,90.60
2023-03-17T17:28:43.830Z,90.60
2023-03-17T17:34:07.892Z,90.70
2023-03-17T17:36:49.812Z,90.90
2023-03-17T17:39:20.227Z,91.20
2023-03-17T17:44:41.743Z,91.70
2023-03-17T17:49:59.709Z,91.00
2023-03-17T17:52:28.621Z,90.80
2023-03-17T17:55:10.522Z,91.10
2023-03-17T18:00:21.587Z,91.30
2023-03-17T18:02:57.670Z,91.40
2023-03-17T18:05:34.636Z,91.10
2023-03-17T18:08:07.056Z,91.10
2023-03-17T18:10:36.902Z,91.10
2023-03-17T18:13:07.264Z,91.00
2023-03-17T18:18:22.660Z,91.10
2023-03-17T18:20:57.015Z,91.00
2023-03-17T18:23:26.404Z,90.80
2023-03-17T18:26:17.269Z,90.70
2023-03-17T18:28:47.812Z,90.70
2023-03-17T18:31:30.300Z,90.90
2023-03-17T18:34:02.817Z,90.90
2023-03-17T18:36:35.834Z,90.50
2023-03-17T18:41:50.514Z,90.70
2023-03-17T18:49:47.472Z,91.10
2023-03-17T18:52:25.970Z,90.90
2023-03-17T18:55:02.894Z,90.90
2023-03-17T19:00:36.232Z,90.80
2023-03-17T19:03:21.403Z,90.80
2023-03-17T19:05:50.084Z,90.90
2023-03-17T19:08:20.618Z,90.70
2023-03-17T19:10:49.537Z,91.00
2023-03-17T19:13:18.385Z,91.00
2023-03-17T19:15:47.796Z,91.00
2023-03-17T19:18:16.984Z,91.10
2023-03-17T19:20:45.516Z,91.00
2023-03-17T19:23:14.479Z,90.90
2023-03-17T19:25:43.125Z,91.10
2023-03-17T19:28:11.621Z,91.30
2023-03-17T19:30:40.358Z,91.20
2023-03-17T19:33:09.543Z,91.50
2023-03-17T19:35:38.118Z,91.40
2023-03-17T19:38:09.118Z,91.30
2023-03-17T19:40:38.507Z,91.30
2023-03-17T19:43:07.699Z,91.70
2023-03-17T19:45:36.285Z,92.00
2023-03-17T19:48:04.879Z,92.10
2023-03-17T19:50:33.849Z,92.20
2023-03-17T19:53:02.551Z,91.80
2023-03-17T19:55:31.456Z,91.60
2023-03-17T19:58:00.330Z,91.60
2023-03-17T20:00:29.345Z,91.60
2023-03-17T20:02:58.192Z,91.60
2023-03-17T20:05:27.121Z,91.70
2023-03-17T20:07:55.768Z,91.60
2023-03-17T20:10:24.549Z,91.40
2023-03-17T20:12:53.250Z,91.40
2023-03-17T20:15:22.382Z,91.60
2023-03-17T20:17:51.076Z,91.60
2023-03-17T20:20:20.153Z,91.50
2023-03-17T20:22:49.015Z,91.60
2023-03-17T20:25:32.451Z,91.60
2023-03-17T20:28:02.414Z,91.50
2023-03-17T20:30:31.433Z,91.50
2023-03-17T20:35:44.988Z,91.50
2023-03-17T20:38:14.620Z,91.50
2023-03-17T20:40:46.189Z,91.40
2023-03-17T20:46:00.361Z,91.60
2023-03-17T20:48:29.025Z,91.70
2023-03-17T20:50:59.197Z,91.80
2023-03-17T20:53:29.005Z,92.10
2023-03-17T20:55:57.757Z,92.00
2023-03-17T20:58:27.651Z,91.90
2023-03-17T21:00:57.893Z,91.70
2023-03-17T21:03:26.664Z,91.70
2023-03-17T21:05:55.256Z,91.60
2023-03-17T21:08:37.519Z,91.70
2023-03-17T21:11:11.059Z,91.70
2023-03-17T21:13:39.741Z,91.60
2023-03-17T21:16:08.410Z,91.60
2023-03-17T21:18:37.212Z,91.60
2023-03-17T21:21:06.125Z,91.70
2023-03-17T21:26:20.480Z,91.90
2023-03-17T21:28:56.449Z,92.30
2023-03-17T21:31:26.375Z,92.50
2023-03-17T21:33:57.998Z,92.60
2023-03-17T21:39:08.559Z,92.80
2023-03-17T21:41:39.682Z,92.60
2023-03-17T21:44:11.889Z,92.50
2023-03-17T21:46:43.034Z,92.40
2023-03-17T21:49:22.119Z,92.10
2023-03-17T21:51:51.355Z,92.00
2023-03-17T21:57:09.032Z,92.00
2023-03-17T21:59:41.346Z,91.80
2023-03-17T22:05:02.240Z,92.30
2023-03-17T22:07:31.207Z,92.30
2023-03-17T22:10:02.735Z,92.30
2023-03-17T22:12:34.667Z,92.40
2023-03-17T22:17:55.009Z,92.30
2023-03-17T22:20:30.814Z,92.20
2023-03-17T22:23:15.678Z,92.10
2023-03-17T22:25:47.230Z,92.30
2023-03-17T22:28:17.744Z,92.20
2023-03-17T22:30:55.279Z,92.20
2023-03-17T22:33:37.923Z,92.10
2023-03-17T22:41:37.243Z,92.10
2023-03-17T22:44:13.075Z,92.10
2023-03-17T22:46:49.419Z,92.00
2023-03-17T22:49:25.479Z,92.10
2023-03-17T22:52:08.821Z,92.10
2023-03-17T22:57:26.190Z,92.00
2023-03-17T22:59:58.205Z,92.20
2023-03-17T23:02:29.423Z,92.30
2023-03-17T23:10:30.396Z,92.50
2023-03-17T23:13:12.495Z,92.70
2023-03-17T23:15:41.349Z,92.50
2023-03-17T23:21:06.481Z,92.80
2023-03-17T23:23:37.570Z,92.70
2023-03-17T23:26:19.481Z,93.00
2023-03-17T23:28:51.165Z,93.00
2023-03-17T23:31:38.110Z,94.10
2023-03-17T23:34:12.126Z,93.30
2023-03-17T23:36:48.042Z,95.00
2023-03-17T23:42:13.020Z,95.10
2023-03-17T23:44:43.415Z,94.40
2023-03-17T23:47:20.245Z,95.50
2023-03-17T23:49:50.604Z,95.50
2023-03-17T23:52:20.628Z,96.30
2023-03-17T23:54:54.899Z,96.00
2023-03-17T23:57:37.457Z,96.70
